createdAt,value
2018-03-23T00:00:29.193Z,6.71
2018-03-23T00:01:29.113Z,6.73
2018-03-23T00:02:29.035Z,6.74
2018-03-23T00:03:28.956Z,6.74
2018-03-23T00:04:28.878Z,6.73
2018-03-23T00:05:28.820Z,6.73
2018-03-23T00:06:28.719Z,6.79
2018-03-23T00:07:28.655Z,6.70
2018-03-23T00:08:28.559Z,6.73
2018-03-23T00:09:28.482Z,6.71
2018-03-23T00:10:28.404Z,6.79
2018-03-23T00:11:28.325Z,6.67
2018-03-23T00:12:28.246Z,6.87
2018-03-23T00:13:28.166Z,6.74
2018-03-23T00:14:28.092Z,6.69
2018-03-23T00:15:28.009Z,6.70
2018-03-23T00:16:27.930Z,6.73
2018-03-23T00:17:27.851Z,6.76
2018-03-23T00:18:27.772Z,6.79
2018-03-23T00:19:27.693Z,6.69
2018-03-23T00:20:27.614Z,6.74
2018-03-23T00:21:27.538Z,6.74
2018-03-23T00:22:27.463Z,6.71
2018-03-23T00:23:27.383Z,6.80
2018-03-23T00:24:27.313Z,6.70
2018-03-23T00:25:27.222Z,6.73
2018-03-23T00:26:27.144Z,6.74
2018-03-23T00:27:27.064Z,6.70
2018-03-23T00:28:26.984Z,6.76
2018-03-23T00:29:26.909Z,6.79
2018-03-23T00:30:26.829Z,6.79
2018-03-23T00:31:26.748Z,6.77
2018-03-23T00:32:26.671Z,6.71
2018-03-23T00:33:26.590Z,6.74
2018-03-23T00:34:26.513Z,6.74
2018-03-23T00:35:26.433Z,6.79
2018-03-23T00:36:26.352Z,6.70
2018-03-23T00:37:26.277Z,6.70
2018-03-23T00:38:26.203Z,6.71
2018-03-23T00:39:26.123Z,6.73
2018-03-23T00:40:26.043Z,6.73
2018-03-23T00:41:25.961Z,6.64
2018-03-23T00:42:25.881Z,6.58
2018-03-23T00:43:25.806Z,6.76
2018-03-23T00:44:25.727Z,6.76
2018-03-23T00:45:25.647Z,6.77
2018-03-23T00:46:25.567Z,6.70
2018-03-23T00:47:25.491Z,6.71
2018-03-23T00:48:25.409Z,6.73
2018-03-23T00:49:25.330Z,6.76
2018-03-23T00:50:25.254Z,6.73
2018-03-23T00:51:25.172Z,6.74
2018-03-23T00:52:25.091Z,6.77
2018-03-23T00:53:25.015Z,6.73
2018-03-23T00:54:24.936Z,6.76
2018-03-23T00:55:24.863Z,6.74
2018-03-23T00:56:24.777Z,6.70
2018-03-23T00:57:24.708Z,6.61
2018-03-23T00:58:24.620Z,6.58
2018-03-23T00:59:24.542Z,6.58
2018-03-23T01:00:24.464Z,6.62
2018-03-23T01:01:24.383Z,6.71
2018-03-23T01:02:24.308Z,6.66
2018-03-23T01:03:24.228Z,6.66
2018-03-23T01:04:24.146Z,6.67
2018-03-23T01:05:24.070Z,6.58
2018-03-23T01:06:23.996Z,6.71
2018-03-23T01:07:23.913Z,6.61
2018-03-23T01:08:23.835Z,6.66
2018-03-23T01:09:23.757Z,6.66
2018-03-23T01:10:23.677Z,6.76
2018-03-23T01:11:23.598Z,6.61
2018-03-23T01:12:23.519Z,6.58
2018-03-23T01:13:23.441Z,6.70
2018-03-23T01:14:23.362Z,6.71
2018-03-23T01:15:23.284Z,6.76
2018-03-23T01:16:23.203Z,6.61
2018-03-23T01:17:23.126Z,6.71
2018-03-23T01:18:23.047Z,6.62
2018-03-23T01:19:22.975Z,6.69
2018-03-23T01:20:22.890Z,6.69
2018-03-23T01:21:22.810Z,6.58
2018-03-23T01:22:22.732Z,6.55
2018-03-23T01:23:22.654Z,6.70
2018-03-23T01:24:22.584Z,6.62
2018-03-23T01:25:22.506Z,6.64
2018-03-23T01:26:22.418Z,6.58
2018-03-23T01:27:22.340Z,6.54
2018-03-23T01:28:22.260Z,6.58
2018-03-23T01:29:22.182Z,6.55
2018-03-23T01:30:22.103Z,6.59
2018-03-23T01:31:22.024Z,6.58
2018-03-23T01:32:21.951Z,6.62
2018-03-23T01:33:21.866Z,6.56
2018-03-23T01:34:21.789Z,6.46
2018-03-23T01:35:21.709Z,6.51
2018-03-23T01:36:21.632Z,6.54
2018-03-23T01:37:21.553Z,6.55
2018-03-23T01:38:21.517Z,6.61
2018-03-23T01:39:21.396Z,6.58
2018-03-23T01:40:21.318Z,6.55
2018-03-23T01:41:21.238Z,6.55
2018-03-23T01:42:21.160Z,6.59
2018-03-23T01:43:21.085Z,6.61
2018-03-23T01:44:21.004Z,6.58
2018-03-23T01:45:20.922Z,6.51
2018-03-23T01:46:20.845Z,6.56
2018-03-23T01:47:20.766Z,6.49
2018-03-23T01:48:20.686Z,6.58
2018-03-23T01:49:20.609Z,6.44
2018-03-23T01:50:20.529Z,6.49
2018-03-23T01:51:20.450Z,6.44
2018-03-23T01:52:20.373Z,6.40
2018-03-23T01:53:20.293Z,6.40
2018-03-23T01:54:20.214Z,6.40
2018-03-23T01:55:20.137Z,6.43
2018-03-23T01:56:20.051Z,6.38
2018-03-23T01:57:19.978Z,6.40
2018-03-23T01:58:19.900Z,6.46
2018-03-23T01:59:19.827Z,6.49
2018-03-23T02:00:19.744Z,6.48
2018-03-23T02:01:19.667Z,6.48
2018-03-23T02:02:19.584Z,6.46
2018-03-23T02:03:19.557Z,6.44
2018-03-23T02:04:19.426Z,6.46
2018-03-23T02:05:19.350Z,6.49
2018-03-23T02:06:19.269Z,6.44
2018-03-23T02:07:19.197Z,6.43
2018-03-23T02:08:19.112Z,6.40
2018-03-23T02:09:19.035Z,6.46
2018-03-23T02:10:18.955Z,6.41
2018-03-23T02:11:18.875Z,6.44
2018-03-23T02:12:18.796Z,6.52
2018-03-23T02:13:18.717Z,6.43
2018-03-23T02:14:18.642Z,6.46
2018-03-23T02:15:18.560Z,6.51
2018-03-23T02:16:18.481Z,6.51
2018-03-23T02:17:18.402Z,6.52
2018-03-23T02:18:18.325Z,6.48
2018-03-23T02:19:18.245Z,6.40
2018-03-23T02:20:18.165Z,6.40
2018-03-23T02:21:18.087Z,6.51
2018-03-23T02:22:18.008Z,6.44
2018-03-23T02:23:17.930Z,6.44
2018-03-23T02:24:17.851Z,6.51
2018-03-23T02:25:17.772Z,6.41
2018-03-23T02:26:17.695Z,6.43
2018-03-23T02:27:17.615Z,6.37
2018-03-23T02:28:17.536Z,6.43
2018-03-23T02:29:17.458Z,6.38
2018-03-23T02:30:17.379Z,6.34
2018-03-23T02:31:17.300Z,6.43
2018-03-23T02:32:17.220Z,6.41
2018-03-23T02:33:17.148Z,6.40
2018-03-23T02:34:17.068Z,6.31
2018-03-23T02:35:16.987Z,6.33
2018-03-23T02:36:16.903Z,6.31
2018-03-23T02:37:16.828Z,6.41
2018-03-23T02:38:16.747Z,6.43
2018-03-23T02:39:16.671Z,6.38
2018-03-23T02:40:16.597Z,6.41
2018-03-23T02:41:16.513Z,6.34
2018-03-23T02:42:16.432Z,6.43
2018-03-23T02:43:16.354Z,6.48
2018-03-23T02:44:16.273Z,6.38
2018-03-23T02:45:16.194Z,6.43
2018-03-23T02:46:16.117Z,6.41
2018-03-23T02:47:16.037Z,6.43
2018-03-23T02:48:15.959Z,6.40
2018-03-23T02:49:15.882Z,6.44
2018-03-23T02:50:15.801Z,6.46
2018-03-23T02:51:15.729Z,6.41
2018-03-23T02:52:15.647Z,6.40
2018-03-23T02:53:15.566Z,6.46
2018-03-23T02:54:15.484Z,6.33
2018-03-23T02:55:15.410Z,6.40
2018-03-23T02:56:15.327Z,6.43
2018-03-23T02:57:15.249Z,6.41
2018-03-23T02:58:15.171Z,6.38
2018-03-23T02:59:15.122Z,6.41
2018-03-23T03:00:15.016Z,6.34
2018-03-23T03:01:14.938Z,6.31
2018-03-23T03:02:14.854Z,6.37
2018-03-23T03:03:14.776Z,6.33
2018-03-23T03:04:14.697Z,6.33
2018-03-23T03:05:14.624Z,6.31
2018-03-23T03:06:14.543Z,6.36
2018-03-23T03:07:14.467Z,6.34
2018-03-23T03:08:14.379Z,6.31
2018-03-23T03:09:14.304Z,6.30
2018-03-23T03:10:14.224Z,6.28
2018-03-23T03:11:14.142Z,6.31
2018-03-23T03:12:14.076Z,6.30
2018-03-23T03:13:13.986Z,6.33
2018-03-23T03:14:13.907Z,6.37
2018-03-23T03:15:13.830Z,6.33
2018-03-23T03:16:13.787Z,6.34
2018-03-23T03:17:13.669Z,6.27
2018-03-23T03:18:13.592Z,6.31
2018-03-23T03:19:13.513Z,6.27
2018-03-23T03:20:13.433Z,6.36
2018-03-23T03:21:13.357Z,6.27
2018-03-23T03:22:13.275Z,6.27
2018-03-23T03:23:13.196Z,6.33
2018-03-23T03:24:13.122Z,6.33
2018-03-23T03:25:13.037Z,6.36
2018-03-23T03:26:12.981Z,6.36
2018-03-23T03:27:12.883Z,6.28
2018-03-23T03:28:12.804Z,6.33
2018-03-23T03:29:12.725Z,6.31
2018-03-23T03:30:12.646Z,6.28
2018-03-23T03:31:12.569Z,6.33
2018-03-23T03:32:12.487Z,6.33
2018-03-23T03:33:12.408Z,6.31
2018-03-23T03:34:12.330Z,6.31
2018-03-23T03:35:12.251Z,6.31
2018-03-23T03:36:12.168Z,6.25
2018-03-23T03:37:12.092Z,6.22
2018-03-23T03:38:12.014Z,6.31
2018-03-23T03:39:11.934Z,6.30
2018-03-23T03:40:11.854Z,6.31
2018-03-23T03:41:11.778Z,6.28
2018-03-23T03:42:11.696Z,6.31
2018-03-23T03:43:11.618Z,6.25
2018-03-23T03:44:11.538Z,6.25
2018-03-23T03:45:11.460Z,6.27
2018-03-23T03:46:11.381Z,6.19
2018-03-23T03:47:11.304Z,6.21
2018-03-23T03:48:11.221Z,6.19
2018-03-23T03:49:11.148Z,6.19
2018-03-23T03:50:11.067Z,6.25
2018-03-23T03:51:10.986Z,6.21
2018-03-23T03:52:10.906Z,6.28
2018-03-23T03:53:10.827Z,6.19
2018-03-23T03:54:10.747Z,6.22
2018-03-23T03:55:10.669Z,6.31
2018-03-23T03:56:10.597Z,6.19
2018-03-23T03:57:10.511Z,6.28
2018-03-23T03:58:10.431Z,6.12
2018-03-23T03:59:10.353Z,6.18
2018-03-23T04:00:10.273Z,6.17
2018-03-23T04:01:10.192Z,6.17
2018-03-23T04:02:10.116Z,6.15
2018-03-23T04:03:10.037Z,6.09
2018-03-23T04:04:09.956Z,6.08
2018-03-23T04:05:09.906Z,6.04
2018-03-23T04:06:09.798Z,6.06
2018-03-23T04:07:09.723Z,5.97
2018-03-23T04:08:09.643Z,6.15
2018-03-23T04:09:09.561Z,6.15
2018-03-23T04:10:09.483Z,6.08
2018-03-23T04:11:09.404Z,6.14
2018-03-23T04:12:09.330Z,6.15
2018-03-23T04:13:09.245Z,6.09
2018-03-23T04:14:09.176Z,6.01
2018-03-23T04:15:09.087Z,6.12
2018-03-23T04:16:09.006Z,6.04
2018-03-23T04:17:08.928Z,6.06
2018-03-23T04:18:08.851Z,6.03
2018-03-23T04:19:08.769Z,6.03
2018-03-23T04:20:08.696Z,6.12
2018-03-23T04:21:08.612Z,6.15
2018-03-23T04:22:08.532Z,6.14
2018-03-23T04:23:08.453Z,6.04
2018-03-23T04:24:08.373Z,6.08
2018-03-23T04:25:08.298Z,6.08
2018-03-23T04:26:08.214Z,6.12
2018-03-23T04:27:08.137Z,6.08
2018-03-23T04:28:08.051Z,6.06
2018-03-23T04:29:07.977Z,6.00
2018-03-23T04:30:07.895Z,6.08
2018-03-23T04:31:07.819Z,6.09
2018-03-23T04:32:07.738Z,6.03
2018-03-23T04:33:07.664Z,6.06
2018-03-23T04:34:07.583Z,6.06
2018-03-23T04:35:07.501Z,5.99
2018-03-23T04:36:07.421Z,6.03
2018-03-23T04:37:07.342Z,6.06
2018-03-23T04:38:07.266Z,6.00
2018-03-23T04:39:07.184Z,6.09
2018-03-23T04:40:07.105Z,6.01
2018-03-23T04:41:07.026Z,6.09
2018-03-23T04:42:06.947Z,6.04
2018-03-23T04:43:06.868Z,6.04
2018-03-23T04:44:06.787Z,6.04
2018-03-23T04:45:06.708Z,6.12
2018-03-23T04:46:06.630Z,6.04
2018-03-23T04:47:06.551Z,6.09
2018-03-23T04:48:06.470Z,6.11
2018-03-23T04:49:06.389Z,6.09
2018-03-23T04:50:06.312Z,6.15
2018-03-23T04:51:06.237Z,6.04
2018-03-23T04:52:06.154Z,6.15
2018-03-23T04:53:06.073Z,6.14
2018-03-23T04:54:05.994Z,6.17
2018-03-23T04:55:05.916Z,6.18
2018-03-23T04:56:05.837Z,6.17
2018-03-23T04:57:05.755Z,6.00
2018-03-23T04:58:05.679Z,6.09
2018-03-23T04:59:05.598Z,6.00
2018-03-23T05:00:05.513Z,6.09
2018-03-23T05:01:05.441Z,6.03
2018-03-23T05:02:05.361Z,6.03
2018-03-23T05:03:05.286Z,6.11
2018-03-23T05:04:05.201Z,6.04
2018-03-23T05:05:05.121Z,6.06
2018-03-23T05:06:05.041Z,6.04
2018-03-23T05:07:04.961Z,6.00
2018-03-23T05:08:04.893Z,6.03
2018-03-23T05:09:04.803Z,6.06
2018-03-23T05:10:04.735Z,6.08
2018-03-23T05:11:04.644Z,6.08
2018-03-23T05:12:04.571Z,6.03
2018-03-23T05:13:04.487Z,6.06
2018-03-23T05:14:04.406Z,6.08
2018-03-23T05:15:04.329Z,6.01
2018-03-23T05:16:04.248Z,6.03
2018-03-23T05:17:04.168Z,6.03
2018-03-23T05:18:04.089Z,6.01
2018-03-23T05:19:04.009Z,6.08
2018-03-23T05:20:03.928Z,6.08
2018-03-23T05:21:03.851Z,6.01
2018-03-23T05:22:03.769Z,6.04
2018-03-23T05:23:03.691Z,6.06
2018-03-23T05:24:03.612Z,6.03
2018-03-23T05:25:03.535Z,6.08
2018-03-23T05:26:03.454Z,6.03
2018-03-23T05:27:03.376Z,5.97
2018-03-23T05:28:03.293Z,6.00
2018-03-23T05:29:03.217Z,6.03
2018-03-23T05:30:03.166Z,6.06
2018-03-23T05:31:03.055Z,6.01
2018-03-23T05:32:02.979Z,6.01
2018-03-23T05:33:02.898Z,6.04
2018-03-23T05:34:02.818Z,6.01
2018-03-23T05:35:02.737Z,6.03
2018-03-23T05:36:02.658Z,6.03
2018-03-23T05:37:02.583Z,6.06
2018-03-23T05:38:02.503Z,6.06
2018-03-23T05:39:02.429Z,5.96
2018-03-23T05:40:02.339Z,6.01
2018-03-23T05:41:02.259Z,5.93
2018-03-23T05:42:02.179Z,6.00
2018-03-23T05:43:02.102Z,6.01
2018-03-23T05:44:02.022Z,5.97
2018-03-23T05:45:01.944Z,6.03
2018-03-23T05:46:01.865Z,5.99
2018-03-23T05:47:01.782Z,6.03
2018-03-23T05:48:01.705Z,6.03
2018-03-23T05:49:01.624Z,5.97
2018-03-23T05:50:01.593Z,5.93
2018-03-23T05:51:01.478Z,6.03
2018-03-23T05:52:01.384Z,6.03
2018-03-23T05:53:01.308Z,5.99
2018-03-23T05:54:01.228Z,6.00
2018-03-23T05:55:01.148Z,5.99
2018-03-23T05:56:01.068Z,5.93
2018-03-23T05:57:00.986Z,6.03
2018-03-23T05:58:00.908Z,6.03
2018-03-23T05:59:00.828Z,5.96
2018-03-23T06:00:00.749Z,5.97
2018-03-23T06:01:00.671Z,5.94
2018-03-23T06:02:00.606Z,5.96
2018-03-23T06:03:00.512Z,6.01
2018-03-23T06:04:00.436Z,6.03
2018-03-23T06:05:00.354Z,6.01
2018-03-23T06:06:00.276Z,6.06
2018-03-23T06:07:00.192Z,6.01
2018-03-23T06:08:00.113Z,6.06
2018-03-23T06:09:00.034Z,6.15
2018-03-23T06:09:59.960Z,6.09
2018-03-23T06:10:59.877Z,6.09
2018-03-23T06:11:59.796Z,6.04
2018-03-23T06:12:59.716Z,6.06
2018-03-23T06:13:59.664Z,6.04
2018-03-23T06:14:59.557Z,6.01
2018-03-23T06:15:59.475Z,6.06
2018-03-23T06:16:59.400Z,6.12
2018-03-23T06:17:59.324Z,6.08
2018-03-23T06:18:59.241Z,6.06
2018-03-23T06:19:59.159Z,6.06
2018-03-23T06:20:59.081Z,6.08
2018-03-23T06:21:59.005Z,6.08
2018-03-23T06:22:58.926Z,6.03
2018-03-23T06:23:58.844Z,6.04
2018-03-23T06:24:58.763Z,6.03
2018-03-23T06:25:58.692Z,6.11
2018-03-23T06:26:58.606Z,6.01
2018-03-23T06:27:58.576Z,6.15
2018-03-23T06:28:58.446Z,6.12
2018-03-23T06:29:58.368Z,6.18
2018-03-23T06:30:58.288Z,6.14
2018-03-23T06:31:58.207Z,6.04
2018-03-23T06:32:58.130Z,6.09
2018-03-23T06:33:58.057Z,6.08
2018-03-23T06:34:57.973Z,5.99
2018-03-23T06:35:57.893Z,6.08
2018-03-23T06:36:57.811Z,6.18
2018-03-23T06:37:57.732Z,6.15
2018-03-23T06:38:57.653Z,6.18
2018-03-23T06:39:57.574Z,6.25
2018-03-23T06:40:57.494Z,6.25
2018-03-23T06:41:57.419Z,6.25
2018-03-23T06:42:57.337Z,6.22
2018-03-23T06:43:57.260Z,6.21
2018-03-23T06:44:57.178Z,6.28
2018-03-23T06:45:57.101Z,6.28
2018-03-23T06:46:57.021Z,6.19
2018-03-23T06:47:56.942Z,6.30
2018-03-23T06:48:56.860Z,6.27
2018-03-23T06:49:56.782Z,6.21
2018-03-23T06:50:56.703Z,6.27
2018-03-23T06:51:56.625Z,6.27
2018-03-23T06:52:56.548Z,6.33
2018-03-23T06:53:56.465Z,6.31
2018-03-23T06:54:56.387Z,6.34
2018-03-23T06:55:56.304Z,6.28
2018-03-23T06:56:56.227Z,6.38
2018-03-23T06:57:56.147Z,6.33
2018-03-23T06:58:56.069Z,6.33
2018-03-23T06:59:55.990Z,6.36
2018-03-23T07:00:55.910Z,6.36
2018-03-23T07:01:55.835Z,6.31
2018-03-23T07:02:55.752Z,6.34
2018-03-23T07:03:55.673Z,6.33
2018-03-23T07:04:55.595Z,6.36
2018-03-23T07:05:55.516Z,6.33
2018-03-23T07:06:55.436Z,6.28
2018-03-23T07:07:55.357Z,6.30
2018-03-23T07:08:55.274Z,6.30
2018-03-23T07:09:55.212Z,6.33
2018-03-23T07:10:55.145Z,6.19
2018-03-23T07:11:55.039Z,6.34
2018-03-23T07:12:54.962Z,6.34
2018-03-23T07:13:54.884Z,6.31
2018-03-23T07:14:54.804Z,6.27
2018-03-23T07:15:54.723Z,6.21
2018-03-23T07:16:54.644Z,6.25
2018-03-23T07:17:54.563Z,6.25
2018-03-23T07:18:54.487Z,6.21
2018-03-23T07:19:54.410Z,6.25
2018-03-23T07:20:54.328Z,6.21
2018-03-23T07:21:54.263Z,6.21
2018-03-23T07:22:54.171Z,6.21
2018-03-23T07:23:54.090Z,6.18
2018-03-23T07:24:54.017Z,6.25
2018-03-23T07:25:53.939Z,6.28
2018-03-23T07:26:53.860Z,6.21
2018-03-23T07:27:53.775Z,6.30
2018-03-23T07:28:53.696Z,6.30
2018-03-23T07:29:53.617Z,6.25
2018-03-23T07:30:53.538Z,6.30
2018-03-23T07:31:53.463Z,6.27
2018-03-23T07:32:53.385Z,6.30
2018-03-23T07:33:53.302Z,6.31
2018-03-23T07:34:53.224Z,6.30
2018-03-23T07:35:53.144Z,6.31
2018-03-23T07:36:53.067Z,6.30
2018-03-23T07:37:52.986Z,6.31
2018-03-23T07:38:52.909Z,6.28
2018-03-23T07:39:52.826Z,6.31
2018-03-23T07:40:52.749Z,6.40
2018-03-23T07:41:52.668Z,6.36
2018-03-23T07:42:52.589Z,6.31
2018-03-23T07:43:52.510Z,6.40
2018-03-23T07:44:52.432Z,6.37
2018-03-23T07:45:52.352Z,6.34
2018-03-23T07:46:52.273Z,6.25
2018-03-23T07:47:52.198Z,6.18
2018-03-23T07:48:52.115Z,6.31
2018-03-23T07:49:52.037Z,6.40
2018-03-23T07:50:51.958Z,6.41
2018-03-23T07:51:51.880Z,6.41
2018-03-23T07:52:51.797Z,6.43
2018-03-23T07:53:51.725Z,6.44
2018-03-23T07:54:51.640Z,6.38
2018-03-23T07:55:51.567Z,6.40
2018-03-23T07:56:51.484Z,6.46
2018-03-23T07:57:51.404Z,6.46
2018-03-23T07:58:51.326Z,6.49
2018-03-23T07:59:51.246Z,6.51
2018-03-23T08:00:51.167Z,6.46
2018-03-23T08:01:51.089Z,6.51
2018-03-23T08:02:51.010Z,6.43
2018-03-23T08:03:50.933Z,6.46
2018-03-23T08:04:50.851Z,6.46
2018-03-23T08:05:50.771Z,6.49
2018-03-23T08:06:50.695Z,6.44
2018-03-23T08:07:50.614Z,6.48
2018-03-23T08:08:50.536Z,6.43
2018-03-23T08:09:50.457Z,6.41
2018-03-23T08:10:50.394Z,6.43
2018-03-23T08:11:50.298Z,6.51
2018-03-23T08:12:50.220Z,6.49
2018-03-23T08:13:50.143Z,6.51
2018-03-23T08:14:50.064Z,6.43
2018-03-23T08:15:49.984Z,6.56
2018-03-23T08:16:49.911Z,6.44
2018-03-23T08:17:49.837Z,6.52
2018-03-23T08:18:49.748Z,6.54
2018-03-23T08:19:49.671Z,6.61
2018-03-23T08:20:49.590Z,6.64
2018-03-23T08:21:49.513Z,6.77
2018-03-23T08:22:49.435Z,6.84
2018-03-23T08:23:49.355Z,6.92
2018-03-23T08:24:49.275Z,6.98
2018-03-23T08:25:49.199Z,7.02
2018-03-23T08:26:49.117Z,7.10
2018-03-23T08:27:49.040Z,7.07
2018-03-23T08:28:48.960Z,7.21
2018-03-23T08:29:48.883Z,7.27
2018-03-23T08:30:48.804Z,7.28
2018-03-23T08:31:48.727Z,7.37
2018-03-23T08:32:48.649Z,7.55
2018-03-23T08:33:48.570Z,7.64
2018-03-23T08:34:48.493Z,7.67
2018-03-23T08:35:48.416Z,7.85
2018-03-23T08:36:48.335Z,8.04
2018-03-23T08:37:48.258Z,8.30
2018-03-23T08:38:48.184Z,8.37
2018-03-23T08:39:48.102Z,8.56
2018-03-23T08:40:48.027Z,8.25
2018-03-23T08:41:47.961Z,8.38
2018-03-23T08:42:47.873Z,8.61
2018-03-23T08:43:47.794Z,8.55
2018-03-23T08:44:47.717Z,8.66
2018-03-23T08:45:47.642Z,8.74
2018-03-23T08:46:47.569Z,8.61
2018-03-23T08:47:47.487Z,8.55
2018-03-23T08:48:47.414Z,8.76
2018-03-23T08:49:47.330Z,8.80
2018-03-23T08:50:47.260Z,9.08
2018-03-23T08:51:47.181Z,9.15
2018-03-23T08:52:47.106Z,9.21
2018-03-23T08:53:47.031Z,9.61
2018-03-23T08:54:46.956Z,9.66
2018-03-23T08:55:46.879Z,9.51
2018-03-23T08:56:46.804Z,10.05
2018-03-23T08:57:46.731Z,9.83
2018-03-23T08:58:46.654Z,9.51
2018-03-23T08:59:46.581Z,9.46
2018-03-23T09:00:46.515Z,9.26
2018-03-23T09:01:46.427Z,9.10
2018-03-23T09:02:46.357Z,8.94
2018-03-23T09:03:46.277Z,8.98
2018-03-23T09:04:46.206Z,8.71
2018-03-23T09:05:46.128Z,8.59
2018-03-23T09:06:46.052Z,8.66
2018-03-23T09:07:45.983Z,8.79
2018-03-23T09:08:45.904Z,8.68
2018-03-23T09:09:45.828Z,8.80
2018-03-23T09:10:45.753Z,8.86
2018-03-23T09:11:45.674Z,8.89
2018-03-23T09:12:45.600Z,8.92
2018-03-23T09:13:45.528Z,8.95
2018-03-23T09:14:45.452Z,9.18
2018-03-23T09:15:45.388Z,8.77
2018-03-23T09:16:45.307Z,8.89
2018-03-23T09:17:45.235Z,9.14
2018-03-23T09:18:45.162Z,9.38
2018-03-23T09:19:45.078Z,9.36
2018-03-23T09:20:45.004Z,9.47
2018-03-23T09:21:44.929Z,9.18
2018-03-23T09:22:44.857Z,9.13
2018-03-23T09:23:44.780Z,8.95
2018-03-23T09:24:44.706Z,9.05
2018-03-23T09:25:44.631Z,9.17
2018-03-23T09:26:44.559Z,9.33
2018-03-23T09:27:44.480Z,9.84
2018-03-23T09:28:44.406Z,9.90
2018-03-23T09:29:44.334Z,9.71
2018-03-23T09:30:44.257Z,9.54
2018-03-23T09:31:44.182Z,9.51
2018-03-23T09:32:44.107Z,8.95
2018-03-23T09:33:44.032Z,8.76
2018-03-23T09:34:43.961Z,8.71
2018-03-23T09:35:43.884Z,8.77
2018-03-23T09:36:43.809Z,8.56
2018-03-23T09:37:43.735Z,8.58
2018-03-23T09:38:43.664Z,8.47
2018-03-23T09:39:43.585Z,8.38
2018-03-23T09:40:43.510Z,8.37
2018-03-23T09:41:43.434Z,8.43
2018-03-23T09:42:43.364Z,8.59
2018-03-23T09:43:43.286Z,8.44
2018-03-23T09:44:43.211Z,8.65
2018-03-23T09:45:43.141Z,8.76
2018-03-23T09:46:43.109Z,8.81
2018-03-23T09:47:42.987Z,8.61
2018-03-23T09:48:42.933Z,8.74
2018-03-23T09:49:42.836Z,8.77
2018-03-23T09:50:42.764Z,8.66
2018-03-23T09:51:42.684Z,8.84
2018-03-23T09:52:42.615Z,8.76
2018-03-23T09:53:42.537Z,8.81
2018-03-23T09:54:42.461Z,8.61
2018-03-23T09:55:42.388Z,8.45
2018-03-23T09:56:42.312Z,8.56
2018-03-23T09:57:42.234Z,8.61
2018-03-23T09:58:42.161Z,8.43
2018-03-23T09:59:42.083Z,8.55
2018-03-23T10:00:42.012Z,8.59
2018-03-23T10:01:41.938Z,8.68
2018-03-23T10:02:41.861Z,8.55
2018-03-23T10:03:41.837Z,8.44
2018-03-23T10:04:41.711Z,8.53
2018-03-23T10:05:41.635Z,8.56
2018-03-23T10:06:41.559Z,8.62
2018-03-23T10:07:41.484Z,8.73
2018-03-23T10:08:41.409Z,8.83
2018-03-23T10:09:41.333Z,8.87
2018-03-23T10:10:41.257Z,8.81
2018-03-23T10:11:41.181Z,8.84
2018-03-23T10:12:41.108Z,8.84
2018-03-23T10:13:41.031Z,8.87
2018-03-23T10:14:40.954Z,8.86
2018-03-23T10:15:40.882Z,8.86
2018-03-23T10:16:40.804Z,8.73
2018-03-23T10:17:40.732Z,8.77
2018-03-23T10:18:40.654Z,8.66
2018-03-23T10:19:40.575Z,8.58
2018-03-23T10:20:40.558Z,8.68
2018-03-23T10:21:40.428Z,8.79
2018-03-23T10:22:40.350Z,8.77
2018-03-23T10:23:40.273Z,8.80
2018-03-23T10:24:40.197Z,8.89
2018-03-23T10:25:40.121Z,9.02
2018-03-23T10:26:40.044Z,9.26
2018-03-23T10:27:39.968Z,9.47
2018-03-23T10:28:39.907Z,9.64
2018-03-23T10:29:39.818Z,9.61
2018-03-23T10:30:39.743Z,9.40
2018-03-23T10:31:39.664Z,9.43
2018-03-23T10:32:39.592Z,9.56
2018-03-23T10:33:39.514Z,9.75
2018-03-23T10:34:39.441Z,9.66
2018-03-23T10:35:39.363Z,9.91
2018-03-23T10:36:39.290Z,10.18
2018-03-23T10:37:39.217Z,10.08
2018-03-23T10:38:39.143Z,9.96
2018-03-23T10:39:39.064Z,9.94
2018-03-23T10:40:38.988Z,9.93
2018-03-23T10:41:38.911Z,10.27
2018-03-23T10:42:38.840Z,9.89
2018-03-23T10:43:38.766Z,9.74
2018-03-23T10:44:38.694Z,9.76
2018-03-23T10:45:38.618Z,9.90
2018-03-23T10:46:38.541Z,9.96
2018-03-23T10:47:38.471Z,9.86
2018-03-23T10:48:38.390Z,9.90
2018-03-23T10:49:38.317Z,10.11
2018-03-23T10:50:38.242Z,10.04
2018-03-23T10:51:38.163Z,10.15
2018-03-23T10:52:38.135Z,10.23
2018-03-23T10:53:38.023Z,10.20
2018-03-23T10:54:37.946Z,9.87
2018-03-23T10:55:37.867Z,10.07
2018-03-23T10:56:37.796Z,10.34
2018-03-23T10:57:37.733Z,10.63
2018-03-23T10:58:37.650Z,10.97
2018-03-23T10:59:37.574Z,11.10
2018-03-23T11:00:37.499Z,11.17
2018-03-23T11:01:37.428Z,11.44
2018-03-23T11:02:37.353Z,11.64
2018-03-23T11:03:37.277Z,11.29
2018-03-23T11:04:37.207Z,11.15
2018-03-23T11:05:37.132Z,11.19
2018-03-23T11:06:37.057Z,11.39
2018-03-23T11:07:36.984Z,11.80
2018-03-23T11:08:36.911Z,12.10
2018-03-23T11:09:36.837Z,12.27
2018-03-23T11:10:36.764Z,12.14
2018-03-23T11:11:36.691Z,11.82
2018-03-23T11:12:36.618Z,11.73
2018-03-23T11:13:36.556Z,12.21
2018-03-23T11:14:36.474Z,12.35
2018-03-23T11:15:36.400Z,12.53
2018-03-23T11:16:36.330Z,12.41
2018-03-23T11:17:36.254Z,12.95
2018-03-23T11:18:36.182Z,12.96
2018-03-23T11:19:36.110Z,13.15
2018-03-23T11:20:36.040Z,13.17
2018-03-23T11:21:35.967Z,12.72
2018-03-23T11:22:35.900Z,12.79
2018-03-23T11:23:35.826Z,12.75
2018-03-23T11:24:35.756Z,12.04
2018-03-23T11:25:35.683Z,11.95
2018-03-23T11:26:35.612Z,11.95
2018-03-23T11:27:35.541Z,12.14
2018-03-23T11:28:35.476Z,11.95
2018-03-23T11:29:35.398Z,11.96
2018-03-23T11:30:35.331Z,12.04
2018-03-23T11:31:35.258Z,12.10
2018-03-23T11:32:35.186Z,11.94
2018-03-23T11:33:35.116Z,11.83
2018-03-23T11:34:35.051Z,11.95
2018-03-23T11:35:34.972Z,12.21
2018-03-23T11:36:34.902Z,12.32
2018-03-23T11:37:34.830Z,12.09
2018-03-23T11:38:34.760Z,11.94
2018-03-23T11:39:34.686Z,11.99
2018-03-23T11:40:34.617Z,12.02
2018-03-23T11:41:34.545Z,12.07
2018-03-23T11:42:34.473Z,12.16
2018-03-23T11:43:34.399Z,12.21
2018-03-23T11:44:34.328Z,12.41
2018-03-23T11:45:34.314Z,12.60
2018-03-23T11:46:34.184Z,12.64
2018-03-23T11:47:34.112Z,12.47
2018-03-23T11:48:34.041Z,12.24
2018-03-23T11:49:33.969Z,12.05
2018-03-23T11:50:33.896Z,11.75
2018-03-23T11:51:33.829Z,11.62
2018-03-23T11:52:33.750Z,11.00
2018-03-23T11:53:33.680Z,11.18
2018-03-23T11:54:33.608Z,11.09
2018-03-23T11:55:33.535Z,10.88
2018-03-23T11:56:33.464Z,10.74
2018-03-23T11:57:33.389Z,10.96
2018-03-23T11:58:33.316Z,11.00
2018-03-23T11:59:33.245Z,11.02
2018-03-23T12:00:33.172Z,11.04
2018-03-23T12:01:33.102Z,11.00
2018-03-23T12:02:33.026Z,11.02
2018-03-23T12:03:32.957Z,10.88
2018-03-23T12:04:32.884Z,10.79
2018-03-23T12:05:32.818Z,10.74
2018-03-23T12:06:32.748Z,10.48
2018-03-23T12:07:32.682Z,10.38
2018-03-23T12:08:32.587Z,10.23
2018-03-23T12:09:32.515Z,10.17
2018-03-23T12:10:32.440Z,10.02
2018-03-23T12:11:32.391Z,9.91
2018-03-23T12:12:32.291Z,10.04
2018-03-23T12:13:32.220Z,9.83
2018-03-23T12:14:32.140Z,9.75
2018-03-23T12:15:32.067Z,9.61
2018-03-23T12:16:31.992Z,9.68
2018-03-23T12:17:31.918Z,9.71
2018-03-23T12:18:31.843Z,9.72
2018-03-23T12:19:31.768Z,9.89
2018-03-23T12:20:31.708Z,9.89
2018-03-23T12:21:31.662Z,9.90
2018-03-23T12:22:31.548Z,9.96
2018-03-23T12:23:31.470Z,10.04
2018-03-23T12:24:31.393Z,9.93
2018-03-23T12:25:31.320Z,9.83
2018-03-23T12:26:31.252Z,9.81
2018-03-23T12:27:31.192Z,9.79
2018-03-23T12:28:31.094Z,9.90
2018-03-23T12:29:31.015Z,10.02
2018-03-23T12:30:30.948Z,10.01
2018-03-23T12:31:30.868Z,10.07
2018-03-23T12:32:30.791Z,10.23
2018-03-23T12:33:30.716Z,10.27
2018-03-23T12:34:30.640Z,10.20
2018-03-23T12:35:30.568Z,10.30
2018-03-23T12:36:30.491Z,10.23
2018-03-23T12:37:30.419Z,10.08
2018-03-23T12:38:30.339Z,10.02
2018-03-23T12:39:30.262Z,10.08
2018-03-23T12:40:30.184Z,10.11
2018-03-23T12:41:30.117Z,10.15
2018-03-23T12:42:30.038Z,10.20
2018-03-23T12:43:29.960Z,10.11
2018-03-23T12:44:29.888Z,10.11
2018-03-23T12:45:29.881Z,10.17
2018-03-23T12:46:29.751Z,10.23
2018-03-23T12:47:29.660Z,10.15
2018-03-23T12:48:29.584Z,10.01
2018-03-23T12:49:29.509Z,10.23
2018-03-23T12:50:29.435Z,10.17
2018-03-23T12:51:29.363Z,10.08
2018-03-23T12:52:29.283Z,10.20
2018-03-23T12:53:29.208Z,10.22
2018-03-23T12:54:29.188Z,10.26
2018-03-23T12:55:29.058Z,10.27
2018-03-23T12:56:28.982Z,10.36
2018-03-23T12:57:28.931Z,10.27
2018-03-23T12:58:28.830Z,10.33
2018-03-23T12:59:28.752Z,10.45
2018-03-23T13:00:28.680Z,10.26
2018-03-23T13:01:28.607Z,10.25
2018-03-23T13:02:28.530Z,10.30
2018-03-23T13:03:28.452Z,10.27
2018-03-23T13:04:28.379Z,10.26
2018-03-23T13:05:28.332Z,10.34
2018-03-23T13:06:28.230Z,10.26
2018-03-23T13:07:28.150Z,10.29
2018-03-23T13:08:28.079Z,10.09
2018-03-23T13:09:28.015Z,10.07
2018-03-23T13:10:27.928Z,10.08
2018-03-23T13:11:27.851Z,9.96
2018-03-23T13:12:27.777Z,10.02
2018-03-23T13:13:27.697Z,9.68